sensor_id;sensor_type;location;lat;lon;timestamp;P1;durP1;ratioP1;P2;durP2;ratioP2
7158;SDS011;63175;52.374;13.132;2022-11-15T00:01:14;24.97;;;18.63;;
7158;SDS011;63175;52.374;13.132;2022-11-15T00:03:43;24.50;;;18.87;;
7158;SDS011;63175;52.374;13.132;2022-11-15T00:06:11;22.20;;;17.23;;
7158;SDS011;63175;52.374;13.132;2022-11-15T00:08:38;23.10;;;16.93;;
7158;SDS011;63175;52.374;13.132;2022-11-15T00:11:05;23.13;;;18.00;;
7158;SDS011;63175;52.374;13.132;2022-11-15T00:13:32;20.23;;;16.87;;
7158;SDS011;63175;52.374;13.132;2022-11-15T00:15:59;24.30;;;18.77;;
7158;SDS011;63175;52.374;13.132;2022-11-15T00:18:27;22.60;;;17.77;;
7158;SDS011;63175;52.374;13.132;2022-11-15T00:20:54;22.37;;;17.97;;
7158;SDS011;63175;52.374;13.132;2022-11-15T00:23:23;24.93;;;18.47;;
7158;SDS011;63175;52.374;13.132;2022-11-15T00:25:55;25.80;;;18.87;;
7158;SDS011;63175;52.374;13.132;2022-11-15T00:28:22;25.40;;;18.70;;
7158;SDS011;63175;52.374;13.132;2022-11-15T00:30:49;21.53;;;18.13;;
7158;SDS011;63175;52.374;13.132;2022-11-15T00:33:16;24.10;;;17.93;;
7158;SDS011;63175;52.374;13.132;2022-11-15T00:35:43;30.40;;;20.90;;
7158;SDS011;63175;52.374;13.132;2022-11-15T00:38:10;26.20;;;19.43;;
7158;SDS011;63175;52.374;13.132;2022-11-15T00:40:38;23.27;;;18.83;;
7158;SDS011;63175;52.374;13.132;2022-11-15T00:43:05;29.70;;;19.97;;
7158;SDS011;63175;52.374;13.132;2022-11-15T00:45:32;30.30;;;20.00;;
7158;SDS011;63175;52.374;13.132;2022-11-15T00:47:59;27.63;;;20.30;;
7158;SDS011;63175;52.374;13.132;2022-11-15T00:50:26;27.07;;;19.50;;
7158;SDS011;63175;52.374;13.132;2022-11-15T00:52:53;23.63;;;19.03;;
7158;SDS011;63175;52.374;13.132;2022-11-15T00:55:20;26.93;;;20.20;;
7158;SDS011;63175;52.374;13.132;2022-11-15T00:57:48;26.23;;;19.33;;
7158;SDS011;63175;52.374;13.132;2022-11-15T01:00:15;26.53;;;19.30;;
7158;SDS011;63175;52.374;13.132;2022-11-15T01:02:42;25.87;;;19.00;;
7158;SDS011;63175;52.374;13.132;2022-11-15T01:05:09;29.00;;;21.03;;
7158;SDS011;63175;52.374;13.132;2022-11-15T01:07:36;29.77;;;21.37;;
7158;SDS011;63175;52.374;13.132;2022-11-15T01:10:03;26.60;;;20.40;;
7158;SDS011;63175;52.374;13.132;2022-11-15T01:12:31;25.47;;;19.10;;
7158;SDS011;63175;52.374;13.132;2022-11-15T01:14:59;24.87;;;18.40;;
7158;SDS011;63175;52.374;13.132;2022-11-15T01:17:26;20.80;;;17.73;;
7158;SDS011;63175;52.374;13.132;2022-11-15T01:19:53;23.83;;;18.77;;
7158;SDS011;63175;52.374;13.132;2022-11-15T01:22:20;27.27;;;19.53;;
7158;SDS011;63175;52.374;13.132;2022-11-15T01:24:47;22.90;;;17.57;;
7158;SDS011;63175;52.374;13.132;2022-11-15T01:27:15;22.80;;;18.30;;
7158;SDS011;63175;52.374;13.132;2022-11-15T01:29:42;21.57;;;17.43;;
7158;SDS011;63175;52.374;13.132;2022-11-15T01:32:10;21.70;;;16.47;;
7158;SDS011;63175;52.374;13.132;2022-11-15T01:34:37;23.50;;;16.73;;
7158;SDS011;63175;52.374;13.132;2022-11-15T01:37:04;23.20;;;17.67;;
7158;SDS011;63175;52.374;13.132;2022-11-15T01:39:31;23.33;;;18.20;;
7158;SDS011;63175;52.374;13.132;2022-11-15T01:41:58;21.13;;;16.30;;
7158;SDS011;63175;52.374;13.132;2022-11-15T01:44:36;26.80;;;18.27;;
7158;SDS011;63175;52.374;13.132;2022-11-15T01:47:07;25.37;;;18.70;;
7158;SDS011;63175;52.374;13.132;2022-11-15T01:49:39;25.53;;;19.30;;
7158;SDS011;63175;52.374;13.132;2022-11-15T01:52:13;23.00;;;18.40;;
7158;SDS011;63175;52.374;13.132;2022-11-15T01:54:42;23.60;;;18.40;;
7158;SDS011;63175;52.374;13.132;2022-11-15T01:57:10;23.77;;;19.13;;
7158;SDS011;63175;52.374;13.132;2022-11-15T01:59:40;25.80;;;18.57;;
7158;SDS011;63175;52.374;13.132;2022-11-15T02:02:10;21.90;;;16.63;;
7158;SDS011;63175;52.374;13.132;2022-11-15T02:04:41;26.50;;;17.80;;
7158;SDS011;63175;52.374;13.132;2022-11-15T02:07:09;26.13;;;18.40;;
7158;SDS011;63175;52.374;13.132;2022-11-15T02:09:38;23.67;;;18.10;;
7158;SDS011;63175;52.374;13.132;2022-11-15T02:12:05;22.37;;;16.83;;
7158;SDS011;63175;52.374;13.132;2022-11-15T02:14:35;20.33;;;16.27;;
7158;SDS011;63175;52.374;13.132;2022-11-15T02:17:06;22.13;;;17.07;;
7158;SDS011;63175;52.374;13.132;2022-11-15T02:19:58;21.80;;;16.43;;
7158;SDS011;63175;52.374;13.132;2022-11-15T02:22:43;23.60;;;17.07;;
7158;SDS011;63175;52.374;13.132;2022-11-15T02:25:24;23.40;;;16.40;;
7158;SDS011;63175;52.374;13.132;2022-11-15T02:28:15;24.23;;;18.73;;
7158;SDS011;63175;52.374;13.132;2022-11-15T02:30:51;25.30;;;19.57;;
7158;SDS011;63175;52.374;13.132;2022-11-15T02:33:26;22.27;;;16.63;;
7158;SDS011;63175;52.374;13.132;2022-11-15T02:36:00;21.17;;;16.43;;
7158;SDS011;63175;52.374;13.132;2022-11-15T02:38:31;19.43;;;15.73;;
7158;SDS011;63175;52.374;13.132;2022-11-15T02:41:04;23.43;;;18.03;;
7158;SDS011;63175;52.374;13.132;2022-11-15T02:43:36;23.97;;;19.47;;
7158;SDS011;63175;52.374;13.132;2022-11-15T02:46:26;29.83;;;23.53;;
7158;SDS011;63175;52.374;13.132;2022-11-15T02:49:17;29.43;;;20.63;;
7158;SDS011;63175;52.374;13.132;2022-11-15T02:51:44;25.27;;;19.47;;
7158;SDS011;63175;52.374;13.132;2022-11-15T02:54:14;25.77;;;20.47;;
7158;SDS011;63175;52.374;13.132;2022-11-15T02:56:44;27.87;;;20.33;;
7158;SDS011;63175;52.374;13.132;2022-11-15T02:59:19;24.17;;;19.17;;
7158;SDS011;63175;52.374;13.132;2022-11-15T03:02:08;27.00;;;21.27;;
7158;SDS011;63175;52.374;13.132;2022-11-15T03:04:45;30.60;;;22.43;;
7158;SDS011;63175;52.374;13.132;2022-11-15T03:07:19;29.00;;;21.87;;
7158;SDS011;63175;52.374;13.132;2022-11-15T03:09:56;27.40;;;20.40;;
7158;SDS011;63175;52.374;13.132;2022-11-15T03:12:28;25.87;;;19.80;;
7158;SDS011;63175;52.374;13.132;2022-11-15T03:15:04;27.20;;;20.00;;
7158;SDS011;63175;52.374;13.132;2022-11-15T03:17:36;32.10;;;22.07;;
7158;SDS011;63175;52.374;13.132;2022-11-15T03:20:07;26.67;;;21.80;;
7158;SDS011;63175;52.374;13.132;2022-11-15T03:22:37;27.53;;;20.00;;
7158;SDS011;63175;52.374;13.132;2022-11-15T03:25:08;26.33;;;19.73;;
7158;SDS011;63175;52.374;13.132;2022-11-15T03:27:40;27.93;;;21.93;;
7158;SDS011;63175;52.374;13.132;2022-11-15T03:30:09;33.17;;;23.17;;
7158;SDS011;63175;52.374;13.132;2022-11-15T03:32:41;30.03;;;21.60;;
7158;SDS011;63175;52.374;13.132;2022-11-15T03:35:11;28.80;;;20.97;;
7158;SDS011;63175;52.374;13.132;2022-11-15T03:37:43;27.47;;;20.67;;
7158;SDS011;63175;52.374;13.132;2022-11-15T03:40:13;29.87;;;20.93;;
7158;SDS011;63175;52.374;13.132;2022-11-15T03:42:42;25.03;;;19.60;;
7158;SDS011;63175;52.374;13.132;2022-11-15T03:45:13;24.73;;;18.70;;
7158;SDS011;63175;52.374;13.132;2022-11-15T03:47:45;23.67;;;16.90;;
7158;SDS011;63175;52.374;13.132;2022-11-15T03:50:16;28.03;;;20.50;;
7158;SDS011;63175;52.374;13.132;2022-11-15T03:52:45;28.00;;;20.13;;
7158;SDS011;63175;52.374;13.132;2022-11-15T03:55:15;28.50;;;20.57;;
7158;SDS011;63175;52.374;13.132;2022-11-15T03:57:43;27.70;;;20.57;;
7158;SDS011;63175;52.374;13.132;2022-11-15T04:00:12;28.90;;;20.63;;
7158;SDS011;63175;52.374;13.132;2022-11-15T04:02:39;31.27;;;21.43;;
7158;SDS011;63175;52.374;13.132;2022-11-15T04:05:07;28.13;;;20.23;;
7158;SDS011;63175;52.374;13.132;2022-11-15T04:07:34;28.07;;;20.63;;
7158;SDS011;63175;52.374;13.132;2022-11-15T04:10:01;27.93;;;20.23;;
7158;SDS011;63175;52.374;13.132;2022-11-15T04:12:29;27.87;;;20.53;;
7158;SDS011;63175;52.374;13.132;2022-11-15T04:14:59;29.57;;;21.70;;
7158;SDS011;63175;52.374;13.132;2022-11-15T04:17:37;32.20;;;21.23;;
7158;SDS011;63175;52.374;13.132;2022-11-15T04:20:06;24.33;;;19.30;;
7158;SDS011;63175;52.374;13.132;2022-11-15T04:22:54;23.87;;;17.93;;
7158;SDS011;63175;52.374;13.132;2022-11-15T04:25:39;24.90;;;18.33;;
7158;SDS011;63175;52.374;13.132;2022-11-15T04:28:06;28.13;;;21.13;;
7158;SDS011;63175;52.374;13.132;2022-11-15T04:30:33;23.73;;;18.73;;
7158;SDS011;63175;52.374;13.132;2022-11-15T04:33:00;23.83;;;19.20;;
7158;SDS011;63175;52.374;13.132;2022-11-15T04:35:28;28.67;;;19.97;;
7158;SDS011;63175;52.374;13.132;2022-11-15T04:37:55;29.90;;;20.40;;
7158;SDS011;63175;52.374;13.132;2022-11-15T04:40:22;24.97;;;19.70;;
7158;SDS011;63175;52.374;13.132;2022-11-15T04:42:49;24.67;;;18.37;;
7158;SDS011;63175;52.374;13.132;2022-11-15T04:45:16;20.67;;;16.33;;
7158;SDS011;63175;52.374;13.132;2022-11-15T04:47:44;20.87;;;15.80;;
7158;SDS011;63175;52.374;13.132;2022-11-15T04:50:11;23.17;;;17.50;;
7158;SDS011;63175;52.374;13.132;2022-11-15T04:52:40;23.60;;;16.70;;
7158;SDS011;63175;52.374;13.132;2022-11-15T04:55:08;22.00;;;16.47;;
7158;SDS011;63175;52.374;13.132;2022-11-15T04:57:36;23.30;;;16.83;;
7158;SDS011;63175;52.374;13.132;2022-11-15T05:00:03;20.93;;;15.50;;
7158;SDS011;63175;52.374;13.132;2022-11-15T05:02:31;22.10;;;16.23;;
7158;SDS011;63175;52.374;13.132;2022-11-15T05:05:12;23.70;;;15.50;;
7158;SDS011;63175;52.374;13.132;2022-11-15T05:07:40;19.63;;;15.47;;
7158;SDS011;63175;52.374;13.132;2022-11-15T05:10:07;18.70;;;14.77;;
7158;SDS011;63175;52.374;13.132;2022-11-15T05:12:35;18.27;;;14.57;;
7158;SDS011;63175;52.374;13.132;2022-11-15T05:15:02;18.83;;;15.53;;
7158;SDS011;63175;52.374;13.132;2022-11-15T05:17:30;18.77;;;15.60;;
7158;SDS011;63175;52.374;13.132;2022-11-15T05:19:56;21.73;;;16.73;;
7158;SDS011;63175;52.374;13.132;2022-11-15T05:22:23;18.33;;;15.40;;
7158;SDS011;63175;52.374;13.132;2022-11-15T05:24:51;19.23;;;15.23;;
7158;SDS011;63175;52.374;13.132;2022-11-15T05:27:18;20.60;;;14.93;;
7158;SDS011;63175;52.374;13.132;2022-11-15T05:29:45;21.97;;;16.20;;
7158;SDS011;63175;52.374;13.132;2022-11-15T05:32:12;17.60;;;14.90;;
7158;SDS011;63175;52.374;13.132;2022-11-15T05:34:39;22.20;;;17.00;;
7158;SDS011;63175;52.374;13.132;2022-11-15T05:37:06;22.83;;;16.70;;
7158;SDS011;63175;52.374;13.132;2022-11-15T05:39:33;23.83;;;16.50;;
7158;SDS011;63175;52.374;13.132;2022-11-15T05:42:02;25.30;;;17.73;;
7158;SDS011;63175;52.374;13.132;2022-11-15T05:44:35;21.20;;;16.00;;
7158;SDS011;63175;52.374;13.132;2022-11-15T05:47:04;24.60;;;16.83;;
7158;SDS011;63175;52.374;13.132;2022-11-15T05:49:35;22.23;;;18.00;;
7158;SDS011;63175;52.374;13.132;2022-11-15T05:52:05;23.13;;;15.90;;
7158;SDS011;63175;52.374;13.132;2022-11-15T05:54:35;21.47;;;17.57;;
7158;SDS011;63175;52.374;13.132;2022-11-15T05:57:04;21.33;;;16.47;;
7158;SDS011;63175;52.374;13.132;2022-11-15T05:59:31;23.27;;;17.00;;
7158;SDS011;63175;52.374;13.132;2022-11-15T06:01:59;20.67;;;15.30;;
7158;SDS011;63175;52.374;13.132;2022-11-15T06:04:26;25.00;;;17.57;;
7158;SDS011;63175;52.374;13.132;2022-11-15T06:06:53;20.50;;;15.93;;
7158;SDS011;63175;52.374;13.132;2022-11-15T06:09:20;21.60;;;15.90;;
7158;SDS011;63175;52.374;13.132;2022-11-15T06:11:47;21.07;;;15.37;;
7158;SDS011;63175;52.374;13.132;2022-11-15T06:14:15;21.50;;;15.00;;
7158;SDS011;63175;52.374;13.132;2022-11-15T06:16:43;20.27;;;15.17;;
7158;SDS011;63175;52.374;13.132;2022-11-15T06:19:10;19.90;;;14.57;;
7158;SDS011;63175;52.374;13.132;2022-11-15T06:21:36;21.60;;;15.93;;
7158;SDS011;63175;52.374;13.132;2022-11-15T06:24:04;21.83;;;16.07;;
7158;SDS011;63175;52.374;13.132;2022-11-15T06:26:32;20.77;;;15.30;;
7158;SDS011;63175;52.374;13.132;2022-11-15T06:28:59;18.70;;;15.97;;
7158;SDS011;63175;52.374;13.132;2022-11-15T06:31:27;20.63;;;16.03;;
7158;SDS011;63175;52.374;13.132;2022-11-15T06:33:54;17.80;;;14.90;;
7158;SDS011;63175;52.374;13.132;2022-11-15T06:36:21;21.53;;;15.60;;
7158;SDS011;63175;52.374;13.132;2022-11-15T06:38:48;17.97;;;15.10;;
7158;SDS011;63175;52.374;13.132;2022-11-15T06:41:15;22.70;;;16.63;;
7158;SDS011;63175;52.374;13.132;2022-11-15T06:43:42;20.43;;;16.43;;
7158;SDS011;63175;52.374;13.132;2022-11-15T06:46:09;20.20;;;15.67;;
7158;SDS011;63175;52.374;13.132;2022-11-15T06:48:37;21.73;;;16.17;;
7158;SDS011;63175;52.374;13.132;2022-11-15T06:51:04;22.67;;;16.87;;
7158;SDS011;63175;52.374;13.132;2022-11-15T06:53:32;18.33;;;14.50;;
7158;SDS011;63175;52.374;13.132;2022-11-15T06:55:59;19.43;;;14.57;;
7158;SDS011;63175;52.374;13.132;2022-11-15T06:58:26;18.10;;;14.97;;
7158;SDS011;63175;52.374;13.132;2022-11-15T07:00:57;18.00;;;14.23;;
7158;SDS011;63175;52.374;13.132;2022-11-15T07:03:24;19.27;;;16.03;;
7158;SDS011;63175;52.374;13.132;2022-11-15T07:05:53;15.60;;;13.67;;
7158;SDS011;63175;52.374;13.132;2022-11-15T07:08:21;19.50;;;15.60;;
7158;SDS011;63175;52.374;13.132;2022-11-15T07:10:48;23.47;;;15.70;;
7158;SDS011;63175;52.374;13.132;2022-11-15T07:13:15;21.20;;;17.03;;
7158;SDS011;63175;52.374;13.132;2022-11-15T07:15:42;22.23;;;17.30;;
7158;SDS011;63175;52.374;13.132;2022-11-15T07:18:09;21.57;;;17.13;;
7158;SDS011;63175;52.374;13.132;2022-11-15T07:20:36;23.70;;;17.50;;
7158;SDS011;63175;52.374;13.132;2022-11-15T07:23:04;26.70;;;18.60;;
7158;SDS011;63175;52.374;13.132;2022-11-15T07:25:31;21.23;;;16.70;;
7158;SDS011;63175;52.374;13.132;2022-11-15T07:27:59;23.23;;;17.30;;
7158;SDS011;63175;52.374;13.132;2022-11-15T07:30:26;21.53;;;16.43;;
7158;SDS011;63175;52.374;13.132;2022-11-15T07:32:53;20.70;;;16.20;;
7158;SDS011;63175;52.374;13.132;2022-11-15T07:35:20;21.13;;;16.50;;
7158;SDS011;63175;52.374;13.132;2022-11-15T07:37:57;22.90;;;16.50;;
7158;SDS011;63175;52.374;13.132;2022-11-15T07:40:26;18.73;;;15.23;;
7158;SDS011;63175;52.374;13.132;2022-11-15T07:42:58;20.70;;;16.33;;
7158;SDS011;63175;52.374;13.132;2022-11-15T07:45:25;21.50;;;15.80;;
7158;SDS011;63175;52.374;13.132;2022-11-15T07:47:52;19.63;;;15.50;;
7158;SDS011;63175;52.374;13.132;2022-11-15T07:50:20;19.93;;;15.27;;
7158;SDS011;63175;52.374;13.132;2022-11-15T07:52:52;21.00;;;15.37;;
7158;SDS011;63175;52.374;13.132;2022-11-15T07:55:20;20.00;;;15.90;;
7158;SDS011;63175;52.374;13.132;2022-11-15T07:57:48;19.67;;;15.30;;
7158;SDS011;63175;52.374;13.132;2022-11-15T08:00:16;21.70;;;15.93;;
7158;SDS011;63175;52.374;13.132;2022-11-15T08:02:43;21.43;;;16.27;;
7158;SDS011;63175;52.374;13.132;2022-11-15T08:05:10;20.67;;;15.23;;
7158;SDS011;63175;52.374;13.132;2022-11-15T08:07:37;21.80;;;15.90;;
7158;SDS011;63175;52.374;13.132;2022-11-15T08:10:05;17.50;;;14.43;;
7158;SDS011;63175;52.374;13.132;2022-11-15T08:12:33;18.57;;;15.37;;
7158;SDS011;63175;52.374;13.132;2022-11-15T08:15:01;20.30;;;15.73;;
7158;SDS011;63175;52.374;13.132;2022-11-15T08:17:29;17.73;;;14.80;;
7158;SDS011;63175;52.374;13.132;2022-11-15T08:19:58;19.50;;;16.00;;
7158;SDS011;63175;52.374;13.132;2022-11-15T08:22:25;18.27;;;14.90;;
7158;SDS011;63175;52.374;13.132;2022-11-15T08:24:52;17.73;;;14.10;;
7158;SDS011;63175;52.374;13.132;2022-11-15T08:27:19;18.90;;;15.30;;
7158;SDS011;63175;52.374;13.132;2022-11-15T08:29:47;20.00;;;15.37;;
7158;SDS011;63175;52.374;13.132;2022-11-15T08:32:16;20.40;;;16.53;;
7158;SDS011;63175;52.374;13.132;2022-11-15T08:34:43;22.20;;;15.60;;
7158;SDS011;63175;52.374;13.132;2022-11-15T08:37:09;18.43;;;14.00;;
7158;SDS011;63175;52.374;13.132;2022-11-15T08:39:36;18.10;;;14.70;;
7158;SDS011;63175;52.374;13.132;2022-11-15T08:42:03;22.00;;;14.10;;
7158;SDS011;63175;52.374;13.132;2022-11-15T08:44:30;20.13;;;15.83;;
7158;SDS011;63175;52.374;13.132;2022-11-15T08:46:57;14.43;;;12.93;;
7158;SDS011;63175;52.374;13.132;2022-11-15T08:49:25;18.37;;;14.40;;
7158;SDS011;63175;52.374;13.132;2022-11-15T08:51:52;16.17;;;12.63;;
7158;SDS011;63175;52.374;13.132;2022-11-15T08:54:19;14.40;;;12.50;;
7158;SDS011;63175;52.374;13.132;2022-11-15T08:56:46;13.43;;;11.20;;
7158;SDS011;63175;52.374;13.132;2022-11-15T08:59:13;15.30;;;12.97;;
7158;SDS011;63175;52.374;13.132;2022-11-15T09:01:39;15.57;;;13.50;;
7158;SDS011;63175;52.374;13.132;2022-11-15T09:04:06;16.27;;;13.37;;
7158;SDS011;63175;52.374;13.132;2022-11-15T09:06:35;13.90;;;11.93;;
7158;SDS011;63175;52.374;13.132;2022-11-15T09:09:02;14.53;;;12.40;;
7158;SDS011;63175;52.374;13.132;2022-11-15T09:11:29;13.13;;;11.23;;
7158;SDS011;63175;52.374;13.132;2022-11-15T09:13:56;15.73;;;12.57;;
7158;SDS011;63175;52.374;13.132;2022-11-15T09:16:23;13.07;;;11.57;;
7158;SDS011;63175;52.374;13.132;2022-11-15T09:18:50;16.77;;;13.63;;
7158;SDS011;63175;52.374;13.132;2022-11-15T09:21:17;20.70;;;13.60;;
7158;SDS011;63175;52.374;13.132;2022-11-15T09:23:45;16.40;;;13.17;;
7158;SDS011;63175;52.374;13.132;2022-11-15T09:26:12;15.27;;;13.23;;
7158;SDS011;63175;52.374;13.132;2022-11-15T09:28:39;14.23;;;11.40;;
7158;SDS011;63175;52.374;13.132;2022-11-15T09:31:07;14.63;;;12.43;;
7158;SDS011;63175;52.374;13.132;2022-11-15T09:33:34;14.70;;;11.00;;
7158;SDS011;63175;52.374;13.132;2022-11-15T09:36:02;15.90;;;13.07;;
7158;SDS011;63175;52.374;13.132;2022-11-15T09:38:30;14.67;;;11.97;;
7158;SDS011;63175;52.374;13.132;2022-11-15T09:41:17;15.37;;;11.60;;
7158;SDS011;63175;52.374;13.132;2022-11-15T09:44:06;14.40;;;11.43;;
7158;SDS011;63175;52.374;13.132;2022-11-15T09:46:51;11.40;;;10.20;;
7158;SDS011;63175;52.374;13.132;2022-11-15T09:49:24;13.50;;;11.03;;
7158;SDS011;63175;52.374;13.132;2022-11-15T09:51:52;13.63;;;10.60;;
7158;SDS011;63175;52.374;13.132;2022-11-15T09:54:27;16.57;;;11.17;;
7158;SDS011;63175;52.374;13.132;2022-11-15T09:57:03;13.43;;;10.47;;
7158;SDS011;63175;52.374;13.132;2022-11-15T09:59:38;14.00;;;12.10;;
7158;SDS011;63175;52.374;13.132;2022-11-15T10:02:17;13.90;;;11.13;;
7158;SDS011;63175;52.374;13.132;2022-11-15T10:04:56;12.90;;;10.30;;
7158;SDS011;63175;52.374;13.132;2022-11-15T10:07:25;13.47;;;10.33;;
7158;SDS011;63175;52.374;13.132;2022-11-15T10:09:59;12.77;;;10.80;;
7158;SDS011;63175;52.374;13.132;2022-11-15T10:12:31;12.63;;;10.50;;
7158;SDS011;63175;52.374;13.132;2022-11-15T10:15:00;14.40;;;11.23;;
7158;SDS011;63175;52.374;13.132;2022-11-15T10:17:54;10.70;;;9.50;;
7158;SDS011;63175;52.374;13.132;2022-11-15T10:20:30;10.47;;;9.33;;
7158;SDS011;63175;52.374;13.132;2022-11-15T10:23:04;12.37;;;11.00;;
7158;SDS011;63175;52.374;13.132;2022-11-15T10:25:36;10.47;;;9.37;;
7158;SDS011;63175;52.374;13.132;2022-11-15T10:28:06;10.23;;;9.13;;
7158;SDS011;63175;52.374;13.132;2022-11-15T10:30:40;14.73;;;10.57;;
7158;SDS011;63175;52.374;13.132;2022-11-15T10:33:17;13.10;;;10.20;;
7158;SDS011;63175;52.374;13.132;2022-11-15T10:36:13;12.93;;;10.10;;
7158;SDS011;63175;52.374;13.132;2022-11-15T10:38:50;14.10;;;9.90;;
7158;SDS011;63175;52.374;13.132;2022-11-15T10:41:20;15.13;;;11.70;;
7158;SDS011;63175;52.374;13.132;2022-11-15T10:44:02;11.57;;;9.67;;
7158;SDS011;63175;52.374;13.132;2022-11-15T10:46:38;9.10;;;8.20;;
7158;SDS011;63175;52.374;13.132;2022-11-15T10:49:12;12.40;;;9.40;;
7158;SDS011;63175;52.374;13.132;2022-11-15T10:51:41;12.83;;;10.27;;
7158;SDS011;63175;52.374;13.132;2022-11-15T10:54:10;13.47;;;10.03;;
7158;SDS011;63175;52.374;13.132;2022-11-15T10:56:40;11.70;;;8.73;;
7158;SDS011;63175;52.374;13.132;2022-11-15T10:59:15;10.47;;;8.63;;
7158;SDS011;63175;52.374;13.132;2022-11-15T11:01:48;11.47;;;10.07;;
7158;SDS011;63175;52.374;13.132;2022-11-15T11:04:24;11.50;;;8.80;;
7158;SDS011;63175;52.374;13.132;2022-11-15T11:06:56;9.60;;;8.40;;
7158;SDS011;63175;52.374;13.132;2022-11-15T11:09:30;7.70;;;6.90;;
7158;SDS011;63175;52.374;13.132;2022-11-15T11:11:59;11.63;;;9.33;;
7158;SDS011;63175;52.374;13.132;2022-11-15T11:14:32;11.47;;;8.43;;
7158;SDS011;63175;52.374;13.132;2022-11-15T11:17:22;9.00;;;8.10;;
7158;SDS011;63175;52.374;13.132;2022-11-15T11:19:58;9.83;;;8.83;;
7158;SDS011;63175;52.374;13.132;2022-11-15T11:22:31;10.77;;;9.50;;
7158;SDS011;63175;52.374;13.132;2022-11-15T11:25:11;10.33;;;9.03;;
7158;SDS011;63175;52.374;13.132;2022-11-15T11:27:54;9.83;;;8.30;;
7158;SDS011;63175;52.374;13.132;2022-11-15T11:30:34;11.30;;;8.10;;
7158;SDS011;63175;52.374;13.132;2022-11-15T11:33:16;9.77;;;8.00;;
7158;SDS011;63175;52.374;13.132;2022-11-15T11:35:51;11.50;;;8.40;;
7158;SDS011;63175;52.374;13.132;2022-11-15T11:38:49;11.37;;;8.47;;
7158;SDS011;63175;52.374;13.132;2022-11-15T11:41:36;10.90;;;9.30;;
7158;SDS011;63175;52.374;13.132;2022-11-15T11:44:21;9.43;;;7.67;;
7158;SDS011;63175;52.374;13.132;2022-11-15T11:47:00;8.93;;;7.40;;
7158;SDS011;63175;52.374;13.132;2022-11-15T11:49:34;10.73;;;7.37;;
7158;SDS011;63175;52.374;13.132;2022-11-15T11:52:12;6.77;;;6.13;;
7158;SDS011;63175;52.374;13.132;2022-11-15T11:54:48;11.73;;;7.70;;
7158;SDS011;63175;52.374;13.132;2022-11-15T11:57:23;10.17;;;7.27;;
7158;SDS011;63175;52.374;13.132;2022-11-15T12:00:12;11.37;;;7.90;;
7158;SDS011;63175;52.374;13.132;2022-11-15T12:02:44;7.73;;;6.70;;
7158;SDS011;63175;52.374;13.132;2022-11-15T12:05:18;11.17;;;6.40;;
7158;SDS011;63175;52.374;13.132;2022-11-15T12:07:54;7.90;;;6.50;;
7158;SDS011;63175;52.374;13.132;2022-11-15T12:10:30;7.20;;;5.90;;
7158;SDS011;63175;52.374;13.132;2022-11-15T12:13:00;7.67;;;6.73;;
7158;SDS011;63175;52.374;13.132;2022-11-15T12:15:40;7.07;;;5.60;;
7158;SDS011;63175;52.374;13.132;2022-11-15T12:18:13;6.90;;;5.87;;
7158;SDS011;63175;52.374;13.132;2022-11-15T12:20:47;6.20;;;5.60;;
7158;SDS011;63175;52.374;13.132;2022-11-15T12:23:19;8.30;;;6.40;;
7158;SDS011;63175;52.374;13.132;2022-11-15T12:25:50;7.17;;;6.30;;
7158;SDS011;63175;52.374;13.132;2022-11-15T12:28:21;6.60;;;5.83;;
7158;SDS011;63175;52.374;13.132;2022-11-15T12:31:00;8.70;;;6.97;;
7158;SDS011;63175;52.374;13.132;2022-11-15T12:33:36;6.30;;;5.67;;
7158;SDS011;63175;52.374;13.132;2022-11-15T12:36:05;6.23;;;5.63;;
7158;SDS011;63175;52.374;13.132;2022-11-15T12:38:52;8.73;;;5.40;;
7158;SDS011;63175;52.374;13.132;2022-11-15T12:41:21;5.73;;;5.23;;
7158;SDS011;63175;52.374;13.132;2022-11-15T12:43:49;6.60;;;5.67;;
7158;SDS011;63175;52.374;13.132;2022-11-15T12:46:21;7.53;;;5.80;;
7158;SDS011;63175;52.374;13.132;2022-11-15T12:49:01;7.10;;;6.40;;
7158;SDS011;63175;52.374;13.132;2022-11-15T12:57:27;5.80;;;5.20;;
7158;SDS011;63175;52.374;13.132;2022-11-15T12:59:57;6.27;;;5.63;;
7158;SDS011;63175;52.374;13.132;2022-11-15T13:02:28;5.80;;;5.20;;
7158;SDS011;63175;52.374;13.132;2022-11-15T13:08:10;6.90;;;6.00;;
7158;SDS011;63175;52.374;13.132;2022-11-15T13:20:22;6.83;;;4.90;;
7158;SDS011;63175;52.374;13.132;2022-11-15T13:22:52;5.40;;;4.90;;
7158;SDS011;63175;52.374;13.132;2022-11-15T13:25:44;7.23;;;5.20;;
7158;SDS011;63175;52.374;13.132;2022-11-15T13:28:20;6.50;;;5.30;;
7158;SDS011;63175;52.374;13.132;2022-11-15T13:30:51;5.27;;;4.77;;
7158;SDS011;63175;52.374;13.132;2022-11-15T13:33:20;6.50;;;5.30;;
7158;SDS011;63175;52.374;13.132;2022-11-15T13:35:49;7.70;;;4.90;;
7158;SDS011;63175;52.374;13.132;2022-11-15T13:38:19;5.80;;;4.80;;
7158;SDS011;63175;52.374;13.132;2022-11-15T13:40:54;5.70;;;4.60;;
7158;SDS011;63175;52.374;13.132;2022-11-15T13:43:32;6.30;;;4.90;;
7158;SDS011;63175;52.374;13.132;2022-11-15T13:46:11;4.77;;;4.37;;
7158;SDS011;63175;52.374;13.132;2022-11-15T13:48:39;5.73;;;4.90;;
7158;SDS011;63175;52.374;13.132;2022-11-15T13:51:09;4.77;;;4.37;;
7158;SDS011;63175;52.374;13.132;2022-11-15T13:53:44;5.40;;;4.90;;
7158;SDS011;63175;52.374;13.132;2022-11-15T13:56:16;5.03;;;4.60;;
7158;SDS011;63175;52.374;13.132;2022-11-15T13:58:44;4.93;;;4.53;;
7158;SDS011;63175;52.374;13.132;2022-11-15T14:01:14;4.90;;;4.50;;
7158;SDS011;63175;52.374;13.132;2022-11-15T14:03:48;4.57;;;4.07;;
7158;SDS011;63175;52.374;13.132;2022-11-15T14:06:19;4.80;;;4.40;;
7158;SDS011;63175;52.374;13.132;2022-11-15T14:08:59;6.10;;;4.93;;
7158;SDS011;63175;52.374;13.132;2022-11-15T14:11:29;4.90;;;4.40;;
7158;SDS011;63175;52.374;13.132;2022-11-15T14:14:03;5.87;;;4.30;;
7158;SDS011;63175;52.374;13.132;2022-11-15T14:16:39;5.47;;;4.60;;
7158;SDS011;63175;52.374;13.132;2022-11-15T14:19:09;5.80;;;4.90;;
7158;SDS011;63175;52.374;13.132;2022-11-15T14:21:37;5.40;;;4.90;;
7158;SDS011;63175;52.374;13.132;2022-11-15T14:24:38;5.90;;;5.30;;
7158;SDS011;63175;52.374;13.132;2022-11-15T14:29:50;7.33;;;5.60;;
7158;SDS011;63175;52.374;13.132;2022-11-15T14:32:18;5.90;;;4.90;;
7158;SDS011;63175;52.374;13.132;2022-11-15T14:34:47;5.20;;;4.70;;
7158;SDS011;63175;52.374;13.132;2022-11-15T14:37:19;6.70;;;5.60;;
7158;SDS011;63175;52.374;13.132;2022-11-15T14:39:48;5.43;;;4.93;;
7158;SDS011;63175;52.374;13.132;2022-11-15T14:42:15;6.73;;;5.13;;
7158;SDS011;63175;52.374;13.132;2022-11-15T14:44:44;6.33;;;5.60;;
7158;SDS011;63175;52.374;13.132;2022-11-15T14:47:11;7.23;;;5.83;;
7158;SDS011;63175;52.374;13.132;2022-11-15T14:49:38;9.60;;;7.10;;
7158;SDS011;63175;52.374;13.132;2022-11-15T14:52:07;6.53;;;5.50;;
7158;SDS011;63175;52.374;13.132;2022-11-15T14:54:45;6.80;;;5.57;;
7158;SDS011;63175;52.374;13.132;2022-11-15T14:57:12;6.67;;;6.00;;
7158;SDS011;63175;52.374;13.132;2022-11-15T14:59:39;7.17;;;6.47;;
7158;SDS011;63175;52.374;13.132;2022-11-15T15:02:10;7.60;;;6.30;;
7158;SDS011;63175;52.374;13.132;2022-11-15T15:04:43;11.17;;;6.10;;
7158;SDS011;63175;52.374;13.132;2022-11-15T15:07:10;6.37;;;5.77;;
7158;SDS011;63175;52.374;13.132;2022-11-15T15:09:38;7.50;;;6.43;;
7158;SDS011;63175;52.374;13.132;2022-11-15T15:12:05;7.23;;;6.50;;